DLH4LY EPKK-EDDM
Flight info
| Callsign | DLH4LY |
|---|---|
| Flight time | 1h 4m |
| Altitude | 32000 |
| Route | ADADO DCT UTEVO DCT VOZ DCT BAVRI/N0402F300 T110 BINGU T108 LANDU LANDU2B |
| Aircraft | A320/M-SDE2E3FGIJ1LORWXYZ/HB1 |
Departure
| Time | 2026-05-07 14:31 |
|---|---|
| Airport | Kraków John Paul II International Airport (EPKK) |
Arrival
| Time | 2026-05-07 15:35 |
|---|---|
| Airport | Munich Airport (EDDM) |
| Time | Latitude | Longitude | Altitude | Speed | Heading |
|---|---|---|---|---|---|
| 2026-05-07 14:10 | 50.07469 | 19.80080 | 800 ft | 0 kts | 167° |
| 2026-05-07 14:27 | 50.07469 | 19.80081 | 800 ft | 0 kts | 167° |
| 2026-05-07 14:27 | 50.07433 | 19.80095 | 800 ft | 8 kts | 160° |
| 2026-05-07 14:27 | 50.07418 | 19.80163 | 800 ft | 7 kts | 77° |
| 2026-05-07 14:27 | 50.07428 | 19.80230 | 800 ft | 7 kts | 77° |
| 2026-05-07 14:28 | 50.07443 | 19.80331 | 800 ft | 10 kts | 74° |
| 2026-05-07 14:28 | 50.07497 | 19.80391 | 800 ft | 13 kts | 17° |
| 2026-05-07 14:28 | 50.07584 | 19.80421 | 800 ft | 12 kts | 0° |
| 2026-05-07 14:28 | 50.07662 | 19.80397 | 800 ft | 11 kts | 347° |
| 2026-05-07 14:29 | 50.07731 | 19.80373 | 800 ft | 10 kts | 348° |
| 2026-05-07 14:29 | 50.07792 | 19.80353 | 800 ft | 8 kts | 348° |
| 2026-05-07 14:29 | 50.07846 | 19.80336 | 800 ft | 7 kts | 348° |
| 2026-05-07 14:29 | 50.07892 | 19.80320 | 800 ft | 6 kts | 348° |
| 2026-05-07 14:30 | 50.07974 | 19.80292 | 800 ft | 14 kts | 347° |
| 2026-05-07 14:30 | 50.08016 | 19.80228 | 800 ft | 7 kts | 268° |
| 2026-05-07 14:30 | 50.07998 | 19.80102 | 801 ft | 32 kts | 258° |
| 2026-05-07 14:30 | 50.07894 | 19.79357 | 800 ft | 105 kts | 258° |
| 2026-05-07 14:31 | 50.07699 | 19.77955 | 807 ft | 157 kts | 257° |
| 2026-05-07 14:31 | 50.07466 | 19.76256 | 1422 ft | 160 kts | 258° |
| 2026-05-07 14:31 | 50.07234 | 19.74546 | 2109 ft | 166 kts | 259° |
| 2026-05-07 14:31 | 50.06971 | 19.72672 | 2443 ft | 189 kts | 257° |
| 2026-05-07 14:32 | 50.06666 | 19.70545 | 2791 ft | 214 kts | 257° |
| 2026-05-07 14:32 | 50.06324 | 19.68157 | 3231 ft | 238 kts | 257° |
| 2026-05-07 14:32 | 50.05958 | 19.65554 | 3954 ft | 251 kts | 257° |
| 2026-05-07 14:32 | 50.05585 | 19.62887 | 4941 ft | 255 kts | 257° |
| 2026-05-07 14:33 | 50.05205 | 19.60183 | 5944 ft | 257 kts | 257° |
| 2026-05-07 14:33 | 50.04818 | 19.57441 | 6860 ft | 262 kts | 257° |
| 2026-05-07 14:33 | 50.04429 | 19.54697 | 7781 ft | 265 kts | 257° |
| 2026-05-07 14:33 | 50.04027 | 19.51876 | 8733 ft | 269 kts | 256° |
| 2026-05-07 14:34 | 50.03613 | 19.48987 | 9694 ft | 272 kts | 256° |
| 2026-05-07 14:34 | 50.03202 | 19.46108 | 10332 ft | 285 kts | 256° |
| 2026-05-07 14:34 | 50.02794 | 19.42968 | 10705 ft | 307 kts | 261° |
| 2026-05-07 14:34 | 50.02759 | 19.39586 | 11367 ft | 318 kts | 273° |
| 2026-05-07 14:35 | 50.03097 | 19.36103 | 12179 ft | 324 kts | 276° |
| 2026-05-07 14:35 | 50.03449 | 19.32669 | 12969 ft | 328 kts | 276° |
| 2026-05-07 14:35 | 50.03806 | 19.29138 | 13734 ft | 333 kts | 276° |
| 2026-05-07 14:35 | 50.04164 | 19.25559 | 14420 ft | 337 kts | 275° |
| 2026-05-07 14:36 | 50.04524 | 19.21935 | 15116 ft | 341 kts | 275° |
| 2026-05-07 14:36 | 50.04886 | 19.18274 | 15810 ft | 344 kts | 275° |
| 2026-05-07 14:36 | 50.05250 | 19.14577 | 16494 ft | 348 kts | 275° |
| 2026-05-07 14:36 | 50.05616 | 19.10840 | 17184 ft | 351 kts | 275° |
| 2026-05-07 14:37 | 50.05986 | 19.07067 | 17867 ft | 355 kts | 275° |
| 2026-05-07 14:37 | 50.06733 | 18.99424 | 19178 ft | 359 kts | 274° |
| 2026-05-07 14:37 | 50.07108 | 18.95574 | 19793 ft | 361 kts | 274° |
| 2026-05-07 14:38 | 50.07485 | 18.91694 | 20404 ft | 363 kts | 273° |
| 2026-05-07 14:38 | 50.07864 | 18.87791 | 20989 ft | 366 kts | 273° |
| 2026-05-07 14:38 | 50.08242 | 18.83855 | 21563 ft | 369 kts | 272° |
| 2026-05-07 14:38 | 50.08620 | 18.79893 | 22136 ft | 371 kts | 272° |
| 2026-05-07 14:39 | 50.09039 | 18.75906 | 22682 ft | 376 kts | 274° |
| 2026-05-07 14:39 | 50.09572 | 18.71900 | 23241 ft | 380 kts | 276° |
| 2026-05-07 14:39 | 50.10178 | 18.67874 | 23737 ft | 384 kts | 277° |
| 2026-05-07 14:39 | 50.10814 | 18.63825 | 24183 ft | 386 kts | 277° |
| 2026-05-07 14:40 | 50.11455 | 18.59744 | 24648 ft | 389 kts | 276° |
| 2026-05-07 14:40 | 50.12087 | 18.55621 | 25006 ft | 394 kts | 276° |
| 2026-05-07 14:40 | 50.12709 | 18.51442 | 25413 ft | 397 kts | 276° |
| 2026-05-07 14:40 | 50.13311 | 18.47233 | 25835 ft | 399 kts | 275° |
| 2026-05-07 14:41 | 50.13835 | 18.42987 | 26270 ft | 400 kts | 273° |
| 2026-05-07 14:41 | 50.14297 | 18.38708 | 26699 ft | 401 kts | 272° |
| 2026-05-07 14:41 | 50.14732 | 18.34403 | 27127 ft | 403 kts | 272° |
| 2026-05-07 14:41 | 50.15161 | 18.30069 | 27540 ft | 405 kts | 272° |
| 2026-05-07 14:42 | 50.15601 | 18.25718 | 27947 ft | 408 kts | 272° |
| 2026-05-07 14:42 | 50.16055 | 18.21336 | 28356 ft | 411 kts | 272° |
| 2026-05-07 14:42 | 50.16524 | 18.16930 | 28759 ft | 413 kts | 272° |
| 2026-05-07 14:42 | 50.17001 | 18.12501 | 29154 ft | 415 kts | 272° |
| 2026-05-07 14:43 | 50.17480 | 18.08044 | 29540 ft | 418 kts | 272° |
| 2026-05-07 14:43 | 50.17955 | 18.03563 | 29929 ft | 420 kts | 272° |
| 2026-05-07 14:43 | 50.18428 | 17.99060 | 30266 ft | 422 kts | 272° |
| 2026-05-07 14:43 | 50.18900 | 17.94536 | 30590 ft | 423 kts | 272° |
| 2026-05-07 14:44 | 50.19371 | 17.89998 | 30909 ft | 425 kts | 272° |
| 2026-05-07 14:44 | 50.19843 | 17.85440 | 31224 ft | 426 kts | 272° |
| 2026-05-07 14:44 | 50.20316 | 17.80863 | 31542 ft | 428 kts | 272° |
| 2026-05-07 14:44 | 50.20785 | 17.76287 | 31867 ft | 426 kts | 271° |
| 2026-05-07 14:45 | 50.20973 | 17.71756 | 31946 ft | 410 kts | 264° |
| 2026-05-07 14:45 | 50.21002 | 17.67402 | 31957 ft | 394 kts | 263° |
| 2026-05-07 14:45 | 50.21013 | 17.59056 | 31938 ft | 384 kts | 262° |
| 2026-05-07 14:46 | 50.20691 | 17.50829 | 31947 ft | 374 kts | 251° |
| 2026-05-07 14:46 | 50.19057 | 17.43270 | 31942 ft | 367 kts | 243° |
| 2026-05-07 14:47 | 50.17247 | 17.35831 | 31949 ft | 367 kts | 243° |
| 2026-05-07 14:47 | 50.15446 | 17.28402 | 31944 ft | 366 kts | 243° |
| 2026-05-07 14:48 | 50.13632 | 17.20981 | 31946 ft | 366 kts | 243° |
| 2026-05-07 14:48 | 50.11811 | 17.13577 | 31968 ft | 366 kts | 242° |
| 2026-05-07 14:49 | 50.09981 | 17.06175 | 31951 ft | 366 kts | 242° |
| 2026-05-07 14:49 | 50.08148 | 16.98773 | 31942 ft | 366 kts | 242° |
| 2026-05-07 14:50 | 50.06310 | 16.91377 | 31933 ft | 367 kts | 242° |
| 2026-05-07 14:50 | 50.04467 | 16.83970 | 31933 ft | 367 kts | 242° |
| 2026-05-07 14:51 | 50.02615 | 16.76562 | 31934 ft | 368 kts | 243° |
| 2026-05-07 14:51 | 50.00762 | 16.69156 | 31935 ft | 368 kts | 242° |
| 2026-05-07 14:52 | 49.98905 | 16.61755 | 31937 ft | 367 kts | 242° |
| 2026-05-07 14:52 | 49.97345 | 16.55610 | 31962 ft | 368 kts | 243° |
| 2026-05-07 14:53 | 49.95467 | 16.48202 | 31950 ft | 369 kts | 243° |
| 2026-05-07 14:53 | 49.93578 | 16.40794 | 31943 ft | 369 kts | 243° |
| 2026-05-07 14:54 | 49.91689 | 16.33384 | 31939 ft | 370 kts | 243° |
| 2026-05-07 14:54 | 49.89802 | 16.25963 | 31937 ft | 370 kts | 243° |
| 2026-05-07 14:55 | 49.87902 | 16.18555 | 31940 ft | 370 kts | 242° |
| 2026-05-07 14:55 | 49.85994 | 16.11155 | 31939 ft | 370 kts | 242° |
| 2026-05-07 14:56 | 49.84074 | 16.03709 | 31983 ft | 370 kts | 243° |
| 2026-05-07 14:56 | 49.82167 | 15.96359 | 31941 ft | 371 kts | 242° |
| 2026-05-07 14:57 | 49.80239 | 15.88952 | 31934 ft | 371 kts | 242° |
| 2026-05-07 14:57 | 49.78307 | 15.81536 | 31938 ft | 372 kts | 243° |
| 2026-05-07 14:58 | 49.76372 | 15.74114 | 31936 ft | 372 kts | 243° |
| 2026-05-07 14:58 | 49.74423 | 15.66687 | 31938 ft | 373 kts | 243° |
| 2026-05-07 14:59 | 49.72468 | 15.59273 | 31941 ft | 373 kts | 243° |
| 2026-05-07 14:59 | 49.70509 | 15.51854 | 31943 ft | 373 kts | 243° |
| 2026-05-07 15:00 | 49.68536 | 15.44432 | 31968 ft | 374 kts | 243° |
| 2026-05-07 15:00 | 49.66559 | 15.36985 | 31956 ft | 375 kts | 243° |
| 2026-05-07 15:01 | 49.64570 | 15.29532 | 31951 ft | 376 kts | 243° |
| 2026-05-07 15:01 | 49.62577 | 15.22073 | 31961 ft | 376 kts | 244° |
| 2026-05-07 15:02 | 49.60579 | 15.14625 | 31966 ft | 375 kts | 244° |
| 2026-05-07 15:02 | 49.58578 | 15.07202 | 31965 ft | 375 kts | 244° |
| 2026-05-07 15:03 | 49.56571 | 14.99788 | 31969 ft | 374 kts | 243° |
| 2026-05-07 15:03 | 49.54561 | 14.92389 | 31982 ft | 375 kts | 244° |
| 2026-05-07 15:04 | 49.52358 | 14.85126 | 31956 ft | 374 kts | 238° |
| 2026-05-07 15:04 | 49.49772 | 14.78161 | 31962 ft | 375 kts | 238° |
| 2026-05-07 15:05 | 49.47186 | 14.71176 | 31957 ft | 376 kts | 238° |
| 2026-05-07 15:05 | 49.44594 | 14.64188 | 31962 ft | 376 kts | 238° |
| 2026-05-07 15:06 | 49.41994 | 14.57220 | 31972 ft | 376 kts | 238° |
| 2026-05-07 15:06 | 49.39386 | 14.50261 | 31974 ft | 376 kts | 238° |
| 2026-05-07 15:07 | 49.36776 | 14.43310 | 31974 ft | 376 kts | 238° |
| 2026-05-07 15:07 | 49.34165 | 14.36369 | 31990 ft | 376 kts | 238° |
| 2026-05-07 15:08 | 49.31561 | 14.29457 | 31970 ft | 378 kts | 238° |
| 2026-05-07 15:08 | 49.28918 | 14.22489 | 31962 ft | 379 kts | 239° |
| 2026-05-07 15:09 | 49.26267 | 14.15509 | 31965 ft | 379 kts | 239° |
| 2026-05-07 15:09 | 49.23615 | 14.08518 | 31969 ft | 380 kts | 239° |
| 2026-05-07 15:10 | 49.20952 | 14.01526 | 31974 ft | 381 kts | 238° |
| 2026-05-07 15:10 | 49.18275 | 13.94546 | 31977 ft | 381 kts | 238° |
| 2026-05-07 15:11 | 49.15594 | 13.87561 | 31985 ft | 381 kts | 238° |
| 2026-05-07 15:11 | 49.12911 | 13.80591 | 32000 ft | 381 kts | 239° |
| 2026-05-07 15:12 | 49.10222 | 13.73611 | 31993 ft | 382 kts | 239° |
| 2026-05-07 15:12 | 49.07529 | 13.66638 | 32002 ft | 382 kts | 239° |
| 2026-05-07 15:13 | 49.04832 | 13.59669 | 31997 ft | 382 kts | 239° |
| 2026-05-07 15:13 | 49.02124 | 13.52707 | 31997 ft | 382 kts | 239° |
| 2026-05-07 15:14 | 48.99276 | 13.45880 | 32007 ft | 382 kts | 236° |
| 2026-05-07 15:14 | 48.96237 | 13.39248 | 31992 ft | 382 kts | 234° |
| 2026-05-07 15:15 | 48.93183 | 13.32636 | 32002 ft | 382 kts | 235° |
| 2026-05-07 15:15 | 48.91674 | 13.29318 | 31799 ft | 379 kts | 235° |
| 2026-05-07 15:15 | 48.90191 | 13.26030 | 31544 ft | 376 kts | 236° |
| 2026-05-07 15:16 | 48.88719 | 13.22767 | 31190 ft | 373 kts | 236° |
| 2026-05-07 15:16 | 48.87250 | 13.19522 | 30675 ft | 372 kts | 237° |
| 2026-05-07 15:16 | 48.85791 | 13.16304 | 30211 ft | 369 kts | 237° |
| 2026-05-07 15:16 | 48.84340 | 13.13105 | 29698 ft | 366 kts | 237° |
| 2026-05-07 15:17 | 48.82903 | 13.09936 | 29174 ft | 363 kts | 237° |
| 2026-05-07 15:17 | 48.81475 | 13.06799 | 28674 ft | 360 kts | 237° |
| 2026-05-07 15:17 | 48.80057 | 13.03694 | 28186 ft | 356 kts | 237° |
| 2026-05-07 15:17 | 48.78650 | 13.00615 | 27677 ft | 353 kts | 236° |
| 2026-05-07 15:18 | 48.77253 | 12.97566 | 27170 ft | 351 kts | 236° |
| 2026-05-07 15:18 | 48.75862 | 12.94531 | 26701 ft | 349 kts | 236° |
| 2026-05-07 15:18 | 48.74434 | 12.91577 | 26233 ft | 347 kts | 231° |
| 2026-05-07 15:18 | 48.72725 | 12.89012 | 25780 ft | 346 kts | 221° |
| 2026-05-07 15:19 | 48.70743 | 12.86960 | 25326 ft | 346 kts | 211° |
| 2026-05-07 15:19 | 48.68590 | 12.85349 | 24870 ft | 344 kts | 210° |
| 2026-05-07 15:19 | 48.66599 | 12.83406 | 24403 ft | 339 kts | 222° |
| 2026-05-07 15:19 | 48.64970 | 12.80892 | 23807 ft | 333 kts | 234° |
| 2026-05-07 15:20 | 48.63759 | 12.77947 | 23150 ft | 328 kts | 246° |
| 2026-05-07 15:20 | 48.62994 | 12.74728 | 22456 ft | 324 kts | 257° |
| 2026-05-07 15:20 | 48.62667 | 12.71380 | 21785 ft | 320 kts | 264° |
| 2026-05-07 15:20 | 48.62452 | 12.68048 | 21121 ft | 317 kts | 264° |
| 2026-05-07 15:21 | 48.62233 | 12.64752 | 20483 ft | 313 kts | 264° |
| 2026-05-07 15:21 | 48.62013 | 12.61511 | 19811 ft | 308 kts | 264° |
| 2026-05-07 15:21 | 48.61796 | 12.58308 | 19147 ft | 304 kts | 264° |
| 2026-05-07 15:21 | 48.61581 | 12.55147 | 18476 ft | 301 kts | 264° |
| 2026-05-07 15:22 | 48.61359 | 12.52014 | 17765 ft | 298 kts | 264° |
| 2026-05-07 15:22 | 48.61138 | 12.48914 | 17057 ft | 295 kts | 264° |
| 2026-05-07 15:22 | 48.60916 | 12.45846 | 16389 ft | 292 kts | 264° |
| 2026-05-07 15:22 | 48.60696 | 12.42810 | 15742 ft | 290 kts | 264° |
| 2026-05-07 15:23 | 48.60477 | 12.39798 | 15114 ft | 287 kts | 264° |
| 2026-05-07 15:23 | 48.60255 | 12.36818 | 14515 ft | 284 kts | 264° |
| 2026-05-07 15:23 | 48.60033 | 12.33864 | 13904 ft | 282 kts | 264° |
| 2026-05-07 15:23 | 48.59790 | 12.30937 | 13235 ft | 279 kts | 258° |
| 2026-05-07 15:24 | 48.59000 | 12.28297 | 12596 ft | 278 kts | 233° |
| 2026-05-07 15:24 | 48.57489 | 12.26491 | 11957 ft | 282 kts | 207° |
| 2026-05-07 15:24 | 48.55565 | 12.25909 | 11321 ft | 288 kts | 180° |
| 2026-05-07 15:24 | 48.53632 | 12.26699 | 10693 ft | 293 kts | 154° |
| 2026-05-07 15:25 | 48.52092 | 12.28717 | 10061 ft | 297 kts | 129° |
| 2026-05-07 15:25 | 48.50918 | 12.31284 | 9366 ft | 297 kts | 125° |
| 2026-05-07 15:25 | 48.49803 | 12.33889 | 8675 ft | 295 kts | 124° |
| 2026-05-07 15:25 | 48.48702 | 12.36473 | 8028 ft | 291 kts | 124° |
| 2026-05-07 15:26 | 48.47610 | 12.39026 | 7390 ft | 288 kts | 124° |
| 2026-05-07 15:26 | 48.46532 | 12.41550 | 6741 ft | 285 kts | 125° |
| 2026-05-07 15:26 | 48.45352 | 12.43914 | 6044 ft | 280 kts | 141° |
| 2026-05-07 15:26 | 48.43710 | 12.45246 | 5636 ft | 269 kts | 171° |
| 2026-05-07 15:27 | 48.41892 | 12.45230 | 5382 ft | 258 kts | 199° |
| 2026-05-07 15:27 | 48.40385 | 12.43933 | 5122 ft | 248 kts | 229° |
| 2026-05-07 15:27 | 48.39531 | 12.41736 | 5006 ft | 245 kts | 251° |
| 2026-05-07 15:27 | 48.38989 | 12.39294 | 5001 ft | 247 kts | 254° |
| 2026-05-07 15:28 | 48.38481 | 12.36825 | 5002 ft | 247 kts | 255° |
| 2026-05-07 15:28 | 48.37973 | 12.34359 | 5001 ft | 247 kts | 255° |
| 2026-05-07 15:28 | 48.37517 | 12.31871 | 5003 ft | 246 kts | 255° |
| 2026-05-07 15:28 | 48.37281 | 12.29350 | 4997 ft | 243 kts | 280° |
| 2026-05-07 15:29 | 48.37854 | 12.26975 | 5007 ft | 243 kts | 294° |
| 2026-05-07 15:29 | 48.38538 | 12.24651 | 5007 ft | 243 kts | 294° |
| 2026-05-07 15:29 | 48.39217 | 12.22284 | 5006 ft | 244 kts | 289° |
| 2026-05-07 15:29 | 48.39469 | 12.19774 | 5005 ft | 245 kts | 270° |
| 2026-05-07 15:30 | 48.39330 | 12.17221 | 5008 ft | 243 kts | 264° |
| 2026-05-07 15:30 | 48.39132 | 12.14786 | 5001 ft | 226 kts | 264° |
| 2026-05-07 15:30 | 48.38959 | 12.12521 | 5005 ft | 211 kts | 265° |
| 2026-05-07 15:30 | 48.38802 | 12.10394 | 5003 ft | 198 kts | 265° |
| 2026-05-07 15:31 | 48.38655 | 12.08396 | 5013 ft | 186 kts | 265° |
| 2026-05-07 15:31 | 48.38519 | 12.06552 | 4937 ft | 172 kts | 266° |
| 2026-05-07 15:31 | 48.38385 | 12.04730 | 4544 ft | 177 kts | 266° |
| 2026-05-07 15:31 | 48.38249 | 12.02895 | 4248 ft | 176 kts | 265° |
| 2026-05-07 15:32 | 48.38114 | 12.01079 | 3994 ft | 174 kts | 264° |
| 2026-05-07 15:32 | 48.37979 | 11.99278 | 3755 ft | 171 kts | 264° |
| 2026-05-07 15:32 | 48.37847 | 11.97502 | 3526 ft | 170 kts | 266° |
| 2026-05-07 15:32 | 48.37715 | 11.95741 | 3296 ft | 168 kts | 265° |
| 2026-05-07 15:33 | 48.37586 | 11.94015 | 3074 ft | 165 kts | 266° |
| 2026-05-07 15:33 | 48.37460 | 11.92341 | 2861 ft | 156 kts | 265° |
| 2026-05-07 15:33 | 48.37341 | 11.90766 | 2650 ft | 147 kts | 266° |
| 2026-05-07 15:33 | 48.37229 | 11.89284 | 2456 ft | 140 kts | 266° |
| 2026-05-07 15:34 | 48.37120 | 11.87836 | 2254 ft | 140 kts | 265° |
| 2026-05-07 15:34 | 48.37010 | 11.86378 | 2054 ft | 139 kts | 269° |
| 2026-05-07 15:34 | 48.36899 | 11.84906 | 1884 ft | 144 kts | 267° |
| 2026-05-07 15:34 | 48.36787 | 11.83424 | 1685 ft | 143 kts | 267° |
| 2026-05-07 15:35 | 48.36673 | 11.81938 | 1518 ft | 143 kts | 267° |
| 2026-05-07 15:35 | 48.36600 | 11.80986 | 1478 ft | 129 kts | 264° |
| 2026-05-07 15:35 | 48.36517 | 11.79887 | 1485 ft | 81 kts | 263° |
| 2026-05-07 15:35 | 48.36470 | 11.79281 | 1485 ft | 48 kts | 263° |
| 2026-05-07 15:36 | 48.36367 | 11.78843 | 1478 ft | 24 kts | 235° |
| 2026-05-07 15:36 | 48.36313 | 11.78733 | 1481 ft | 16 kts | 233° |
| 2026-05-07 15:36 | 48.36266 | 11.78637 | 1471 ft | 10 kts | 233° |
| 2026-05-07 15:36 | 48.36226 | 11.78556 | 1479 ft | 10 kts | 233° |
| 2026-05-07 15:37 | 48.36130 | 11.78478 | 1482 ft | 12 kts | 179° |
| 2026-05-07 15:37 | 48.36075 | 11.78486 | 1485 ft | 11 kts | 173° |
| 2026-05-07 15:37 | 48.36034 | 11.78558 | 1478 ft | 10 kts | 86° |
| 2026-05-07 15:37 | 48.36042 | 11.78652 | 1485 ft | 8 kts | 83° |
| 2026-05-07 15:38 | 48.36051 | 11.78771 | 1472 ft | 17 kts | 83° |
| 2026-05-07 15:38 | 48.36066 | 11.78964 | 1474 ft | 20 kts | 83° |
| 2026-05-07 15:38 | 48.36083 | 11.79170 | 1485 ft | 15 kts | 83° |
| 2026-05-07 15:38 | 48.36080 | 11.79304 | 1485 ft | 12 kts | 127° |
| 2026-05-07 15:39 | 48.36004 | 11.79331 | 1476 ft | 11 kts | 173° |
| 2026-05-07 15:39 | 48.35929 | 11.79346 | 1481 ft | 10 kts | 164° |
| 2026-05-07 15:39 | 48.35867 | 11.79382 | 1479 ft | 9 kts | 172° |
| 2026-05-07 15:39 | 48.35809 | 11.79399 | 1478 ft | 8 kts | 154° |
| 2026-05-07 15:40 | 48.35793 | 11.79518 | 1480 ft | 17 kts | 83° |
| 2026-05-07 15:40 | 48.35807 | 11.79701 | 1479 ft | 18 kts | 83° |
| 2026-05-07 15:40 | 48.35820 | 11.79882 | 1482 ft | 14 kts | 83° |
| 2026-05-07 15:40 | 48.35825 | 11.80019 | 1485 ft | 12 kts | 105° |
| 2026-05-07 15:41 | 48.35756 | 11.80071 | 1477 ft | 12 kts | 173° |
| 2026-05-07 15:41 | 48.35651 | 11.80099 | 1483 ft | 15 kts | 172° |
| 2026-05-07 15:41 | 48.35548 | 11.80116 | 1485 ft | 14 kts | 174° |
| 2026-05-07 15:41 | 48.35478 | 11.80110 | 1485 ft | 7 kts | 225° |
| 2026-05-07 15:42 | 48.35467 | 11.80046 | 1482 ft | 0 kts | 263° |
| 2026-05-07 15:42 | 48.35467 | 11.80043 | 1483 ft | 3 kts | 263° |
| 2026-05-07 15:42 | 48.35466 | 11.80033 | 1485 ft | 1 kts | 263° |
| 2026-05-07 15:42 | 48.35466 | 11.80020 | 1485 ft | 0 kts | 264° |